sensor_id;sensor_type;location;lat;lon;timestamp;pressure;altitude;pressure_sealevel;temperature;humidity
65997;BME280;52765;52.258;21.052;2024-01-27T00:04:00;100368.94;;;3.58;100.00
65997;BME280;52765;52.258;21.052;2024-01-27T00:08:26;100348.03;;;3.64;100.00
65997;BME280;52765;52.258;21.052;2024-01-27T00:12:52;100390.84;;;3.74;100.00
65997;BME280;52765;52.258;21.052;2024-01-27T00:17:18;100378.38;;;3.75;100.00
65997;BME280;52765;52.258;21.052;2024-01-27T00:21:49;100438.59;;;3.77;100.00
65997;BME280;52765;52.258;21.052;2024-01-27T00:26:15;100412.47;;;3.82;100.00
65997;BME280;52765;52.258;21.052;2024-01-27T00:30:40;100421.88;;;3.75;100.00
65997;BME280;52765;52.258;21.052;2024-01-27T00:35:07;100435.72;;;3.80;100.00
65997;BME280;52765;52.258;21.052;2024-01-27T00:39:33;100430.50;;;3.79;100.00
65997;BME280;52765;52.258;21.052;2024-01-27T00:43:59;100445.13;;;3.73;100.00
65997;BME280;52765;52.258;21.052;2024-01-27T00:48:24;100444.56;;;3.68;100.00
65997;BME280;52765;52.258;21.052;2024-01-27T00:52:50;100469.31;;;3.70;100.00
65997;BME280;52765;52.258;21.052;2024-01-27T00:57:16;100485.94;;;3.61;100.00
65997;BME280;52765;52.258;21.052;2024-01-27T01:01:42;100470.69;;;3.63;100.00
65997;BME280;52765;52.258;21.052;2024-01-27T01:06:07;100483.06;;;3.64;100.00
65997;BME280;52765;52.258;21.052;2024-01-27T01:10:33;100498.84;;;3.67;100.00
65997;BME280;52765;52.258;21.052;2024-01-27T01:14:58;100490.13;;;3.52;100.00
65997;BME280;52765;52.258;21.052;2024-01-27T01:19:24;100489.16;;;3.53;100.00
65997;BME280;52765;52.258;21.052;2024-01-27T01:23:49;100501.81;;;3.49;100.00
65997;BME280;52765;52.258;21.052;2024-01-27T01:28:14;100517.06;;;3.47;100.00
65997;BME280;52765;52.258;21.052;2024-01-27T01:32:40;100518.69;;;3.50;100.00
65997;BME280;52765;52.258;21.052;2024-01-27T01:37:05;100520.47;;;3.49;100.00
65997;BME280;52765;52.258;21.052;2024-01-27T01:41:31;100536.38;;;3.38;100.00
65997;BME280;52765;52.258;21.052;2024-01-27T01:45:56;100527.41;;;3.39;100.00
65997;BME280;52765;52.258;21.052;2024-01-27T01:50:22;100530.81;;;3.41;100.00
65997;BME280;52765;52.258;21.052;2024-01-27T01:54:49;100572.78;;;3.38;100.00
65997;BME280;52765;52.258;21.052;2024-01-27T01:59:14;100559.66;;;3.34;100.00
65997;BME280;52765;52.258;21.052;2024-01-27T02:03:39;100542.09;;;3.32;100.00
65997;BME280;52765;52.258;21.052;2024-01-27T02:08:05;100550.31;;;3.29;100.00
65997;BME280;52765;52.258;21.052;2024-01-27T02:12:31;100544.03;;;3.30;100.00
65997;BME280;52765;52.258;21.052;2024-01-27T02:17:00;100552.34;;;3.38;100.00
65997;BME280;52765;52.258;21.052;2024-01-27T02:21:26;100543.91;;;3.44;100.00
65997;BME280;52765;52.258;21.052;2024-01-27T02:25:51;100539.56;;;3.43;100.00
65997;BME280;52765;52.258;21.052;2024-01-27T02:30:17;100547.09;;;3.49;100.00
65997;BME280;52765;52.258;21.052;2024-01-27T02:34:42;100545.84;;;3.55;100.00
65997;BME280;52765;52.258;21.052;2024-01-27T02:39:08;100550.66;;;3.50;100.00
65997;BME280;52765;52.258;21.052;2024-01-27T02:43:33;100550.09;;;3.58;100.00
65997;BME280;52765;52.258;21.052;2024-01-27T02:47:59;100569.25;;;3.63;100.00
65997;BME280;52765;52.258;21.052;2024-01-27T02:52:24;100572.28;;;3.58;100.00
65997;BME280;52765;52.258;21.052;2024-01-27T02:56:50;100580.16;;;3.60;100.00
65997;BME280;52765;52.258;21.052;2024-01-27T03:01:15;100572.91;;;3.62;100.00
65997;BME280;52765;52.258;21.052;2024-01-27T03:05:41;100582.16;;;3.69;100.00
65997;BME280;52765;52.258;21.052;2024-01-27T03:10:06;100581.97;;;3.72;100.00
65997;BME280;52765;52.258;21.052;2024-01-27T03:14:32;100610.19;;;3.75;100.00
65997;BME280;52765;52.258;21.052;2024-01-27T03:19:00;100583.88;;;3.70;100.00
65997;BME280;52765;52.258;21.052;2024-01-27T03:23:25;100598.47;;;3.77;100.00
65997;BME280;52765;52.258;21.052;2024-01-27T03:27:51;100590.16;;;3.69;100.00
65997;BME280;52765;52.258;21.052;2024-01-27T03:32:17;100596.13;;;3.73;100.00
65997;BME280;52765;52.258;21.052;2024-01-27T03:36:43;100598.59;;;3.76;100.00
65997;BME280;52765;52.258;21.052;2024-01-27T03:41:08;100600.19;;;3.78;100.00
65997;BME280;52765;52.258;21.052;2024-01-27T03:45:34;100612.34;;;3.82;100.00
65997;BME280;52765;52.258;21.052;2024-01-27T03:49:59;100595.50;;;3.82;100.00
65997;BME280;52765;52.258;21.052;2024-01-27T03:54:25;100605.19;;;3.83;100.00
65997;BME280;52765;52.258;21.052;2024-01-27T03:58:51;100627.69;;;3.79;100.00
65997;BME280;52765;52.258;21.052;2024-01-27T04:03:16;100620.41;;;3.68;100.00
65997;BME280;52765;52.258;21.052;2024-01-27T04:07:42;100633.00;;;3.66;100.00
65997;BME280;52765;52.258;21.052;2024-01-27T04:12:07;100631.94;;;3.56;100.00
65997;BME280;52765;52.258;21.052;2024-01-27T04:16:33;100640.31;;;3.49;100.00
65997;BME280;52765;52.258;21.052;2024-01-27T04:20:59;100622.34;;;3.53;100.00
65997;BME280;52765;52.258;21.052;2024-01-27T04:25:24;100629.59;;;3.64;100.00
65997;BME280;52765;52.258;21.052;2024-01-27T04:29:50;100645.03;;;3.59;100.00
65997;BME280;52765;52.258;21.052;2024-01-27T04:34:15;100633.00;;;3.66;100.00
65997;BME280;52765;52.258;21.052;2024-01-27T04:38:43;100641.31;;;3.74;100.00
65997;BME280;52765;52.258;21.052;2024-01-27T04:43:08;100638.44;;;3.77;100.00
65997;BME280;52765;52.258;21.052;2024-01-27T04:47:34;100658.59;;;3.81;100.00
65997;BME280;52765;52.258;21.052;2024-01-27T04:51:59;100650.06;;;3.76;100.00
65997;BME280;52765;52.258;21.052;2024-01-27T04:56:25;100652.19;;;3.71;100.00
65997;BME280;52765;52.258;21.052;2024-01-27T05:00:50;100655.38;;;3.76;100.00
65997;BME280;52765;52.258;21.052;2024-01-27T05:05:16;100667.03;;;3.75;100.00
65997;BME280;52765;52.258;21.052;2024-01-27T05:09:41;100660.28;;;3.69;100.00
65997;BME280;52765;52.258;21.052;2024-01-27T05:14:07;100664.88;;;3.67;100.00
65997;BME280;52765;52.258;21.052;2024-01-27T05:18:32;100669.88;;;3.59;100.00
65997;BME280;52765;52.258;21.052;2024-01-27T05:22:58;100664.63;;;3.58;100.00
65997;BME280;52765;52.258;21.052;2024-01-27T05:27:23;100664.84;;;3.55;100.00
65997;BME280;52765;52.258;21.052;2024-01-27T05:31:49;100667.94;;;3.61;100.00
65997;BME280;52765;52.258;21.052;2024-01-27T05:36:14;100658.03;;;3.50;100.00
65997;BME280;52765;52.258;21.052;2024-01-27T05:40:40;100658.88;;;3.51;100.00
65997;BME280;52765;52.258;21.052;2024-01-27T05:45:06;100650.34;;;3.46;100.00
65997;BME280;52765;52.258;21.052;2024-01-27T05:49:32;100653.53;;;3.38;100.00
65997;BME280;52765;52.258;21.052;2024-01-27T05:53:57;100649.38;;;3.34;100.00
65997;BME280;52765;52.258;21.052;2024-01-27T05:58:23;100651.94;;;3.36;100.00
65997;BME280;52765;52.258;21.052;2024-01-27T06:02:49;100651.81;;;3.37;100.00
65997;BME280;52765;52.258;21.052;2024-01-27T06:07:14;100658.75;;;3.40;100.00
65997;BME280;52765;52.258;21.052;2024-01-27T06:11:39;100657.56;;;3.31;100.00
65997;BME280;52765;52.258;21.052;2024-01-27T06:16:08;100659.16;;;3.33;100.00
65997;BME280;52765;52.258;21.052;2024-01-27T06:20:34;100671.41;;;3.36;100.00
65997;BME280;52765;52.258;21.052;2024-01-27T06:25:00;100664.75;;;3.43;100.00
65997;BME280;52765;52.258;21.052;2024-01-27T06:29:28;100676.25;;;3.44;100.00
65997;BME280;52765;52.258;21.052;2024-01-27T06:33:57;100684.94;;;3.33;100.00
65997;BME280;52765;52.258;21.052;2024-01-27T06:38:22;100673.91;;;3.12;100.00
65997;BME280;52765;52.258;21.052;2024-01-27T06:42:48;100687.22;;;3.12;100.00
65997;BME280;52765;52.258;21.052;2024-01-27T06:47:14;100691.56;;;3.13;100.00
65997;BME280;52765;52.258;21.052;2024-01-27T06:51:39;100710.81;;;3.04;100.00
65997;BME280;52765;52.258;21.052;2024-01-27T06:56:05;100705.44;;;2.91;100.00
65997;BME280;52765;52.258;21.052;2024-01-27T07:00:30;100701.38;;;2.85;100.00
65997;BME280;52765;52.258;21.052;2024-01-27T07:04:56;100707.69;;;2.70;100.00
65997;BME280;52765;52.258;21.052;2024-01-27T07:09:21;100704.88;;;2.71;100.00
65997;BME280;52765;52.258;21.052;2024-01-27T07:13:47;100706.34;;;2.63;100.00
65997;BME280;52765;52.258;21.052;2024-01-27T07:18:13;100695.03;;;2.59;100.00
65997;BME280;52765;52.258;21.052;2024-01-27T07:22:43;100712.31;;;2.66;100.00
65997;BME280;52765;52.258;21.052;2024-01-27T07:27:12;100735.22;;;2.69;100.00
65997;BME280;52765;52.258;21.052;2024-01-27T07:31:37;100718.97;;;2.73;100.00
65997;BME280;52765;52.258;21.052;2024-01-27T07:36:04;100720.19;;;2.82;100.00
65997;BME280;52765;52.258;21.052;2024-01-27T07:40:29;100720.00;;;2.85;100.00
65997;BME280;52765;52.258;21.052;2024-01-27T07:44:55;100724.56;;;2.83;100.00
65997;BME280;52765;52.258;21.052;2024-01-27T07:49:20;100725.97;;;2.89;100.00
65997;BME280;52765;52.258;21.052;2024-01-27T07:53:46;100733.94;;;2.89;100.00
65997;BME280;52765;52.258;21.052;2024-01-27T07:58:12;100730.91;;;2.95;100.00
65997;BME280;52765;52.258;21.052;2024-01-27T08:02:37;100735.88;;;2.87;100.00
65997;BME280;52765;52.258;21.052;2024-01-27T08:07:03;100754.53;;;3.00;100.00
65997;BME280;52765;52.258;21.052;2024-01-27T08:11:34;100752.84;;;2.99;100.00
65997;BME280;52765;52.258;21.052;2024-01-27T08:16:00;100759.78;;;3.01;100.00
65997;BME280;52765;52.258;21.052;2024-01-27T08:20:25;100758.19;;;2.99;100.00
65997;BME280;52765;52.258;21.052;2024-01-27T08:24:51;100757.19;;;3.00;100.00
65997;BME280;52765;52.258;21.052;2024-01-27T08:29:16;100755.09;;;3.05;100.00
65997;BME280;52765;52.258;21.052;2024-01-27T08:33:42;100759.38;;;3.07;100.00
65997;BME280;52765;52.258;21.052;2024-01-27T08:38:07;100764.16;;;3.02;100.00
65997;BME280;52765;52.258;21.052;2024-01-27T08:42:34;100771.03;;;2.92;100.00
65997;BME280;52765;52.258;21.052;2024-01-27T08:47:02;100784.97;;;2.95;100.00
65997;BME280;52765;52.258;21.052;2024-01-27T08:51:28;100780.50;;;3.10;100.00
65997;BME280;52765;52.258;21.052;2024-01-27T08:55:53;100799.13;;;3.10;100.00
65997;BME280;52765;52.258;21.052;2024-01-27T09:00:19;100803.00;;;3.05;100.00
65997;BME280;52765;52.258;21.052;2024-01-27T09:04:44;100802.16;;;3.04;100.00
65997;BME280;52765;52.258;21.052;2024-01-27T09:09:10;100799.31;;;3.07;100.00
65997;BME280;52765;52.258;21.052;2024-01-27T09:13:37;100815.84;;;3.12;100.00
65997;BME280;52765;52.258;21.052;2024-01-27T09:18:03;100810.16;;;3.04;100.00
65997;BME280;52765;52.258;21.052;2024-01-27T09:22:29;100823.09;;;3.10;100.00
65997;BME280;52765;52.258;21.052;2024-01-27T09:26:55;100825.22;;;3.32;100.00
65997;BME280;52765;52.258;21.052;2024-01-27T09:31:21;100833.09;;;3.48;100.00
65997;BME280;52765;52.258;21.052;2024-01-27T09:35:47;100839.38;;;3.33;100.00
65997;BME280;52765;52.258;21.052;2024-01-27T09:40:13;100836.84;;;3.31;100.00
65997;BME280;52765;52.258;21.052;2024-01-27T09:44:39;100850.25;;;3.15;100.00
65997;BME280;52765;52.258;21.052;2024-01-27T09:49:09;100856.38;;;2.89;100.00
65997;BME280;52765;52.258;21.052;2024-01-27T09:53:37;100869.59;;;2.90;100.00
65997;BME280;52765;52.258;21.052;2024-01-27T09:58:03;100859.66;;;2.78;100.00
65997;BME280;52765;52.258;21.052;2024-01-27T10:02:30;100876.59;;;2.77;100.00
65997;BME280;52765;52.258;21.052;2024-01-27T10:06:58;100869.00;;;3.00;100.00
65997;BME280;52765;52.258;21.052;2024-01-27T10:11:24;100884.22;;;3.12;100.00
65997;BME280;52765;52.258;21.052;2024-01-27T10:16:08;100885.63;;;3.18;100.00
65997;BME280;52765;52.258;21.052;2024-01-27T10:20:35;100876.88;;;3.01;100.00
65997;BME280;52765;52.258;21.052;2024-01-27T10:25:00;100894.03;;;3.11;100.00
65997;BME280;52765;52.258;21.052;2024-01-27T10:29:27;100891.13;;;3.14;100.00
65997;BME280;52765;52.258;21.052;2024-01-27T10:33:54;100915.38;;;3.24;100.00
65997;BME280;52765;52.258;21.052;2024-01-27T10:38:20;100920.72;;;3.39;100.00
65997;BME280;52765;52.258;21.052;2024-01-27T10:43:00;100907.41;;;3.39;100.00
65997;BME280;52765;52.258;21.052;2024-01-27T10:47:29;100913.28;;;3.44;100.00
65997;BME280;52765;52.258;21.052;2024-01-27T10:51:56;100924.13;;;3.41;100.00
65997;BME280;52765;52.258;21.052;2024-01-27T10:56:23;100933.38;;;3.35;100.00
65997;BME280;52765;52.258;21.052;2024-01-27T11:00:50;100935.84;;;3.38;100.00
65997;BME280;52765;52.258;21.052;2024-01-27T11:05:16;100944.09;;;3.48;100.00
65997;BME280;52765;52.258;21.052;2024-01-27T11:09:42;100956.00;;;3.42;100.00
65997;BME280;52765;52.258;21.052;2024-01-27T11:14:12;100963.91;;;3.15;100.00
65997;BME280;52765;52.258;21.052;2024-01-27T11:18:37;100972.53;;;3.04;100.00
65997;BME280;52765;52.258;21.052;2024-01-27T11:23:10;100975.75;;;3.09;100.00
65997;BME280;52765;52.258;21.052;2024-01-27T11:27:36;100985.97;;;3.17;100.00
65997;BME280;52765;52.258;21.052;2024-01-27T11:32:06;100994.59;;;3.21;100.00
65997;BME280;52765;52.258;21.052;2024-01-27T11:36:33;101001.47;;;3.25;100.00
65997;BME280;52765;52.258;21.052;2024-01-27T11:41:00;101026.28;;;3.25;100.00
65997;BME280;52765;52.258;21.052;2024-01-27T11:45:29;101027.88;;;3.28;100.00
65997;BME280;52765;52.258;21.052;2024-01-27T11:49:56;101026.38;;;3.24;100.00
65997;BME280;52765;52.258;21.052;2024-01-27T11:54:23;101041.66;;;3.06;100.00
65997;BME280;52765;52.258;21.052;2024-01-27T11:58:49;101067.69;;;3.01;100.00
65997;BME280;52765;52.258;21.052;2024-01-27T12:03:15;101051.75;;;2.85;100.00
65997;BME280;52765;52.258;21.052;2024-01-27T12:07:41;101061.50;;;3.00;100.00
65997;BME280;52765;52.258;21.052;2024-01-27T12:12:07;101078.84;;;3.07;100.00
65997;BME280;52765;52.258;21.052;2024-01-27T12:16:34;101077.81;;;3.10;100.00
65997;BME280;52765;52.258;21.052;2024-01-27T12:21:03;101098.38;;;3.22;100.00
65997;BME280;52765;52.258;21.052;2024-01-27T12:25:28;101103.81;;;3.05;100.00
65997;BME280;52765;52.258;21.052;2024-01-27T12:29:55;101120.91;;;3.01;100.00
65997;BME280;52765;52.258;21.052;2024-01-27T12:34:21;101118.03;;;2.89;100.00
65997;BME280;52765;52.258;21.052;2024-01-27T12:38:57;101132.78;;;2.95;100.00
65997;BME280;52765;52.258;21.052;2024-01-27T12:43:23;101145.69;;;2.87;100.00
65997;BME280;52765;52.258;21.052;2024-01-27T12:47:49;101153.66;;;2.87;100.00
65997;BME280;52765;52.258;21.052;2024-01-27T12:52:14;101156.03;;;2.91;100.00
65997;BME280;52765;52.258;21.052;2024-01-27T12:56:40;101168.91;;;2.99;100.00
65997;BME280;52765;52.258;21.052;2024-01-27T13:01:06;101175.88;;;3.02;100.00
65997;BME280;52765;52.258;21.052;2024-01-27T13:05:32;101182.06;;;3.02;100.00
65997;BME280;52765;52.258;21.052;2024-01-27T13:09:59;101196.22;;;3.03;100.00
65997;BME280;52765;52.258;21.052;2024-01-27T13:14:24;101197.78;;;3.07;100.00
65997;BME280;52765;52.258;21.052;2024-01-27T13:18:50;101207.22;;;3.12;100.00
65997;BME280;52765;52.258;21.052;2024-01-27T13:23:16;101210.28;;;3.21;100.00
65997;BME280;52765;52.258;21.052;2024-01-27T13:27:41;101218.69;;;3.29;100.00
65997;BME280;52765;52.258;21.052;2024-01-27T13:32:07;101228.38;;;3.46;100.00
65997;BME280;52765;52.258;21.052;2024-01-27T13:36:34;101244.97;;;3.35;100.00
65997;BME280;52765;52.258;21.052;2024-01-27T13:40:59;101254.44;;;3.25;100.00
65997;BME280;52765;52.258;21.052;2024-01-27T13:45:25;101252.63;;;3.25;100.00
65997;BME280;52765;52.258;21.052;2024-01-27T13:49:51;101266.81;;;3.26;100.00
65997;BME280;52765;52.258;21.052;2024-01-27T13:54:17;101266.53;;;3.30;100.00
65997;BME280;52765;52.258;21.052;2024-01-27T13:58:42;101281.94;;;3.25;100.00
65997;BME280;52765;52.258;21.052;2024-01-27T14:03:08;101283.53;;;3.28;100.00
65997;BME280;52765;52.258;21.052;2024-01-27T14:07:34;101297.91;;;3.25;100.00
65997;BME280;52765;52.258;21.052;2024-01-27T14:11:59;101304.34;;;3.21;100.00
65997;BME280;52765;52.258;21.052;2024-01-27T14:16:26;101305.72;;;3.12;100.00
65997;BME280;52765;52.258;21.052;2024-01-27T14:20:52;101321.44;;;3.17;100.00
65997;BME280;52765;52.258;21.052;2024-01-27T14:25:17;101334.94;;;3.14;100.00
65997;BME280;52765;52.258;21.052;2024-01-27T14:29:43;101355.63;;;3.09;100.00
65997;BME280;52765;52.258;21.052;2024-01-27T14:34:08;101367.38;;;3.05;100.00
65997;BME280;52765;52.258;21.052;2024-01-27T14:38:34;101360.59;;;2.99;100.00
65997;BME280;52765;52.258;21.052;2024-01-27T14:43:00;101374.75;;;3.00;100.00
65997;BME280;52765;52.258;21.052;2024-01-27T14:47:25;101388.84;;;3.02;100.00
65997;BME280;52765;52.258;21.052;2024-01-27T14:51:53;101382.72;;;2.84;100.00
65997;BME280;52765;52.258;21.052;2024-01-27T14:56:19;101401.09;;;2.88;100.00
65997;BME280;52765;52.258;21.052;2024-01-27T15:00:44;101402.44;;;2.80;100.00
65997;BME280;52765;52.258;21.052;2024-01-27T15:05:10;101412.28;;;2.95;100.00
65997;BME280;52765;52.258;21.052;2024-01-27T15:09:35;101433.97;;;2.87;100.00
65997;BME280;52765;52.258;21.052;2024-01-27T15:14:01;101441.34;;;2.82;100.00
65997;BME280;52765;52.258;21.052;2024-01-27T15:18:27;101454.56;;;2.84;100.00
65997;BME280;52765;52.258;21.052;2024-01-27T15:22:53;101462.00;;;2.77;100.00
65997;BME280;52765;52.258;21.052;2024-01-27T15:27:19;101479.38;;;2.67;100.00
65997;BME280;52765;52.258;21.052;2024-01-27T15:31:44;101475.78;;;2.68;100.00
65997;BME280;52765;52.258;21.052;2024-01-27T15:36:10;101487.75;;;2.59;100.00
65997;BME280;52765;52.258;21.052;2024-01-27T15:40:39;101505.13;;;2.49;100.00
65997;BME280;52765;52.258;21.052;2024-01-27T15:45:05;101516.09;;;2.24;100.00
65997;BME280;52765;52.258;21.052;2024-01-27T15:49:30;101516.38;;;2.17;100.00
65997;BME280;52765;52.258;21.052;2024-01-27T15:53:56;101531.00;;;2.09;100.00
65997;BME280;52765;52.258;21.052;2024-01-27T15:58:22;101556.06;;;2.03;100.00
65997;BME280;52765;52.258;21.052;2024-01-27T16:02:48;101550.41;;;1.92;100.00
65997;BME280;52765;52.258;21.052;2024-01-27T16:07:14;101569.00;;;1.92;100.00
65997;BME280;52765;52.258;21.052;2024-01-27T16:11:41;101578.03;;;1.88;100.00
65997;BME280;52765;52.258;21.052;2024-01-27T16:16:07;101584.13;;;1.90;100.00
65997;BME280;52765;52.258;21.052;2024-01-27T16:20:32;101589.19;;;1.96;100.00
65997;BME280;52765;52.258;21.052;2024-01-27T16:24:58;101601.53;;;1.97;100.00
65997;BME280;52765;52.258;21.052;2024-01-27T16:29:26;101602.31;;;1.99;100.00
65997;BME280;52765;52.258;21.052;2024-01-27T16:33:52;101609.59;;;1.95;100.00
65997;BME280;52765;52.258;21.052;2024-01-27T16:38:17;101621.63;;;1.83;100.00
65997;BME280;52765;52.258;21.052;2024-01-27T16:42:43;101617.59;;;1.75;100.00
65997;BME280;52765;52.258;21.052;2024-01-27T16:47:08;101637.53;;;1.64;100.00
65997;BME280;52765;52.258;21.052;2024-01-27T16:51:34;101634.00;;;1.64;100.00
65997;BME280;52765;52.258;21.052;2024-01-27T16:56:05;101644.50;;;1.67;100.00
65997;BME280;52765;52.258;21.052;2024-01-27T17:00:31;101644.56;;;1.65;100.00
65997;BME280;52765;52.258;21.052;2024-01-27T17:04:56;101657.59;;;1.72;100.00
65997;BME280;52765;52.258;21.052;2024-01-27T17:09:28;101663.69;;;1.74;100.00
65997;BME280;52765;52.258;21.052;2024-01-27T17:13:53;101663.63;;;1.75;100.00
65997;BME280;52765;52.258;21.052;2024-01-27T17:18:20;101677.03;;;1.72;100.00
65997;BME280;52765;52.258;21.052;2024-01-27T17:22:46;101686.59;;;1.76;100.00
65997;BME280;52765;52.258;21.052;2024-01-27T17:27:12;101681.75;;;1.65;100.00
65997;BME280;52765;52.258;21.052;2024-01-27T17:31:38;101690.25;;;1.74;100.00
65997;BME280;52765;52.258;21.052;2024-01-27T17:36:04;101699.75;;;1.79;100.00
65997;BME280;52765;52.258;21.052;2024-01-27T17:40:30;101703.41;;;1.77;100.00
65997;BME280;52765;52.258;21.052;2024-01-27T17:44:56;101708.72;;;1.77;100.00
65997;BME280;52765;52.258;21.052;2024-01-27T17:49:21;101705.53;;;1.89;100.00
65997;BME280;52765;52.258;21.052;2024-01-27T17:53:47;101719.22;;;1.80;100.00
65997;BME280;52765;52.258;21.052;2024-01-27T17:58:39;101717.69;;;1.74;100.00
65997;BME280;52765;52.258;21.052;2024-01-27T18:03:06;101729.09;;;1.76;100.00
65997;BME280;52765;52.258;21.052;2024-01-27T18:07:31;101728.50;;;1.70;100.00
65997;BME280;52765;52.258;21.052;2024-01-27T18:11:57;101741.72;;;1.71;100.00
65997;BME280;52765;52.258;21.052;2024-01-27T18:16:26;101735.31;;;1.77;100.00
65997;BME280;52765;52.258;21.052;2024-01-27T18:20:51;101747.38;;;1.84;100.00
65997;BME280;52765;52.258;21.052;2024-01-27T18:25:17;101753.50;;;1.86;100.00
65997;BME280;52765;52.258;21.052;2024-01-27T18:29:42;101768.38;;;1.90;100.00
65997;BME280;52765;52.258;21.052;2024-01-27T18:34:08;101765.50;;;1.95;100.00
65997;BME280;52765;52.258;21.052;2024-01-27T18:38:34;101768.03;;;1.98;100.00
65997;BME280;52765;52.258;21.052;2024-01-27T18:43:01;101785.59;;;2.02;100.00
65997;BME280;52765;52.258;21.052;2024-01-27T18:47:27;101776.84;;;2.00;100.00
65997;BME280;52765;52.258;21.052;2024-01-27T18:51:54;101794.28;;;2.06;100.00
65997;BME280;52765;52.258;21.052;2024-01-27T18:56:21;101776.00;;;1.98;100.00
65997;BME280;52765;52.258;21.052;2024-01-27T19:00:50;101799.81;;;2.01;100.00
65997;BME280;52765;52.258;21.052;2024-01-27T19:05:17;101806.06;;;2.00;100.00
65997;BME280;52765;52.258;21.052;2024-01-27T19:09:44;101836.41;;;1.94;100.00
65997;BME280;52765;52.258;21.052;2024-01-27T19:14:09;101828.63;;;1.90;100.00
65997;BME280;52765;52.258;21.052;2024-01-27T19:18:35;101850.03;;;1.87;100.00
65997;BME280;52765;52.258;21.052;2024-01-27T19:23:02;101833.50;;;1.80;100.00
65997;BME280;52765;52.258;21.052;2024-01-27T19:27:31;101853.44;;;1.90;100.00
65997;BME280;52765;52.258;21.052;2024-01-27T19:31:58;101856.94;;;1.91;100.00
65997;BME280;52765;52.258;21.052;2024-01-27T19:36:27;101855.97;;;1.93;100.00
65997;BME280;52765;52.258;21.052;2024-01-27T19:40:53;101868.19;;;1.97;100.00
65997;BME280;52765;52.258;21.052;2024-01-27T19:45:18;101877.75;;;2.01;100.00
65997;BME280;52765;52.258;21.052;2024-01-27T19:49:51;101882.88;;;2.06;100.00
65997;BME280;52765;52.258;21.052;2024-01-27T19:54:17;101882.38;;;2.18;100.00
65997;BME280;52765;52.258;21.052;2024-01-27T19:58:43;101893.25;;;2.12;100.00
65997;BME280;52765;52.258;21.052;2024-01-27T20:03:08;101898.81;;;2.06;100.00
65997;BME280;52765;52.258;21.052;2024-01-27T20:07:34;101909.41;;;2.08;100.00
65997;BME280;52765;52.258;21.052;2024-01-27T20:11:59;101913.00;;;2.07;100.00
65997;BME280;52765;52.258;21.052;2024-01-27T20:16:25;101924.56;;;2.06;100.00
65997;BME280;52765;52.258;21.052;2024-01-27T20:20:50;101942.91;;;2.12;100.00
65997;BME280;52765;52.258;21.052;2024-01-27T20:25:18;101941.72;;;2.19;100.00
65997;BME280;52765;52.258;21.052;2024-01-27T20:29:45;101944.44;;;2.17;100.00
65997;BME280;52765;52.258;21.052;2024-01-27T20:34:10;101943.84;;;2.11;100.00
65997;BME280;52765;52.258;21.052;2024-01-27T20:38:37;101952.47;;;2.16;100.00
65997;BME280;52765;52.258;21.052;2024-01-27T20:43:10;101966.44;;;2.21;100.00
65997;BME280;52765;52.258;21.052;2024-01-27T20:47:39;101958.41;;;2.22;100.00
65997;BME280;52765;52.258;21.052;2024-01-27T20:52:05;101964.75;;;2.20;100.00
65997;BME280;52765;52.258;21.052;2024-01-27T20:56:30;101980.00;;;2.15;100.00
65997;BME280;52765;52.258;21.052;2024-01-27T21:01:00;101981.56;;;2.20;100.00
65997;BME280;52765;52.258;21.052;2024-01-27T21:05:29;101983.03;;;2.28;100.00
65997;BME280;52765;52.258;21.052;2024-01-27T21:09:57;101992.41;;;2.36;100.00
65997;BME280;52765;52.258;21.052;2024-01-27T21:14:23;101994.44;;;2.30;100.00
65997;BME280;52765;52.258;21.052;2024-01-27T21:18:49;102005.31;;;2.25;100.00
65997;BME280;52765;52.258;21.052;2024-01-27T21:23:14;102001.69;;;2.26;100.00
65997;BME280;52765;52.258;21.052;2024-01-27T21:27:44;102020.19;;;2.29;100.00
65997;BME280;52765;52.258;21.052;2024-01-27T21:32:13;102010.63;;;2.25;100.00
65997;BME280;52765;52.258;21.052;2024-01-27T21:36:38;102016.13;;;2.20;100.00
65997;BME280;52765;52.258;21.052;2024-01-27T21:41:04;102038.13;;;2.24;100.00
65997;BME280;52765;52.258;21.052;2024-01-27T21:45:29;102033.72;;;2.23;100.00
65997;BME280;52765;52.258;21.052;2024-01-27T21:49:55;102041.09;;;2.16;100.00
65997;BME280;52765;52.258;21.052;2024-01-27T21:54:24;102042.09;;;2.14;100.00
65997;BME280;52765;52.258;21.052;2024-01-27T21:58:50;102052.94;;;2.08;100.00
65997;BME280;52765;52.258;21.052;2024-01-27T22:03:15;102058.38;;;2.04;100.00
65997;BME280;52765;52.258;21.052;2024-01-27T22:07:41;102067.09;;;2.08;100.00
65997;BME280;52765;52.258;21.052;2024-01-27T22:12:14;102088.31;;;2.10;100.00
65997;BME280;52765;52.258;21.052;2024-01-27T22:17:06;102095.94;;;2.19;100.00
65997;BME280;52765;52.258;21.052;2024-01-27T22:22:16;102081.97;;;2.14;100.00
65997;BME280;52765;52.258;21.052;2024-01-27T22:26:42;102087.75;;;2.01;100.00
65997;BME280;52765;52.258;21.052;2024-01-27T22:31:07;102107.47;;;1.96;100.00
65997;BME280;52765;52.258;21.052;2024-01-27T22:35:34;102113.41;;;2.02;100.00
65997;BME280;52765;52.258;21.052;2024-01-27T22:40:01;102116.00;;;2.04;100.00
65997;BME280;52765;52.258;21.052;2024-01-27T22:44:28;102128.78;;;1.94;100.00
65997;BME280;52765;52.258;21.052;2024-01-27T22:48:54;102124.63;;;1.87;100.00
65997;BME280;52765;52.258;21.052;2024-01-27T22:53:23;102131.75;;;1.87;100.00
65997;BME280;52765;52.258;21.052;2024-01-27T22:57:48;102135.66;;;1.76;100.00